createdAt,value
2017-10-13T00:00:17.253Z,13.20
2017-10-13T00:02:45.545Z,13.20
2017-10-13T00:05:13.809Z,13.10
2017-10-13T00:07:42.094Z,13.10
2017-10-13T00:10:10.358Z,13.10
2017-10-13T00:12:38.636Z,13.10
2017-10-13T00:15:06.898Z,13.10
2017-10-13T00:17:34.412Z,13.10
2017-10-13T00:20:01.936Z,13.10
2017-10-13T00:22:29.433Z,13.10
2017-10-13T00:24:57.001Z,13.10
2017-10-13T00:27:24.501Z,13.10
2017-10-13T00:29:52.820Z,13.10
2017-10-13T00:32:20.329Z,13.10
2017-10-13T00:34:48.591Z,13.20
2017-10-13T00:37:16.102Z,13.20
2017-10-13T00:39:43.594Z,13.10
2017-10-13T00:42:11.104Z,13.10
2017-10-13T00:44:38.601Z,13.10
2017-10-13T00:47:06.135Z,13.00
2017-10-13T00:49:33.637Z,13.00
2017-10-13T00:52:01.176Z,13.00
2017-10-13T00:54:28.674Z,13.00
2017-10-13T00:56:56.936Z,12.90
2017-10-13T00:59:24.440Z,12.90
2017-10-13T01:01:51.933Z,12.90
2017-10-13T01:04:19.447Z,13.00
2017-10-13T01:06:46.940Z,13.00
2017-10-13T01:09:14.458Z,13.00
2017-10-13T01:11:41.964Z,13.00
2017-10-13T01:14:09.476Z,13.00
2017-10-13T01:16:36.981Z,13.00
2017-10-13T01:19:04.468Z,13.00
2017-10-13T01:21:31.990Z,13.00
2017-10-13T01:23:59.505Z,13.00
2017-10-13T01:26:27.051Z,13.00
2017-10-13T01:28:54.545Z,13.00
2017-10-13T01:31:22.061Z,13.00
2017-10-13T01:33:49.553Z,13.00
2017-10-13T01:36:17.058Z,13.00
2017-10-13T01:38:45.347Z,12.90
2017-10-13T01:41:12.861Z,12.90
2017-10-13T01:43:40.389Z,12.90
2017-10-13T01:46:07.884Z,12.90
2017-10-13T01:48:35.397Z,12.90
2017-10-13T01:51:02.941Z,12.80
2017-10-13T01:53:30.434Z,12.80
2017-10-13T01:55:57.956Z,12.70
2017-10-13T01:58:25.464Z,12.80
2017-10-13T02:00:53.007Z,12.80
2017-10-13T02:03:20.512Z,12.80
2017-10-13T02:05:48.777Z,12.80
2017-10-13T02:08:17.055Z,12.70
2017-10-13T02:10:45.329Z,12.70
2017-10-13T02:13:13.607Z,12.80
2017-10-13T02:15:41.947Z,12.80
2017-10-13T02:18:09.464Z,12.80
2017-10-13T02:20:36.959Z,12.80
2017-10-13T02:23:04.473Z,12.80
2017-10-13T02:25:31.982Z,12.80
2017-10-13T02:27:59.475Z,12.80
2017-10-13T02:30:27.772Z,12.70
2017-10-13T02:32:55.268Z,12.70
2017-10-13T02:35:22.798Z,12.70
2017-10-13T02:37:50.312Z,12.70
2017-10-13T02:40:18.581Z,12.80
2017-10-13T02:42:46.115Z,12.80
2017-10-13T02:45:13.624Z,12.80
2017-10-13T02:47:41.145Z,12.80
2017-10-13T02:50:09.412Z,12.70
2017-10-13T02:52:36.904Z,12.70
2017-10-13T02:55:05.176Z,12.70
2017-10-13T02:57:33.452Z,12.70
2017-10-13T03:00:01.709Z,12.70
2017-10-13T03:02:29.218Z,12.70
2017-10-13T03:04:56.761Z,12.70
2017-10-13T03:07:24.260Z,12.60
2017-10-13T03:09:51.790Z,12.70
2017-10-13T03:12:19.287Z,12.70
2017-10-13T03:14:46.784Z,12.70
2017-10-13T03:17:14.308Z,12.70
2017-10-13T03:19:41.823Z,12.60
2017-10-13T03:22:09.348Z,12.60
2017-10-13T03:24:37.600Z,12.60
2017-10-13T03:27:05.122Z,12.50
2017-10-13T03:29:32.629Z,12.50
2017-10-13T03:32:00.908Z,12.50
2017-10-13T03:34:29.188Z,12.40
2017-10-13T03:36:57.452Z,12.50
2017-10-13T03:39:25.157Z,12.50
2017-10-13T03:41:52.664Z,12.50
2017-10-13T03:44:20.964Z,12.40
2017-10-13T03:46:49.242Z,12.40
2017-10-13T03:49:16.780Z,12.40
2017-10-13T03:51:45.037Z,12.50
2017-10-13T03:54:12.533Z,12.50
2017-10-13T03:56:40.046Z,12.50
2017-10-13T03:59:07.544Z,12.50
2017-10-13T04:01:35.091Z,12.50
2017-10-13T04:04:03.351Z,12.50
2017-10-13T04:06:30.888Z,12.40
2017-10-13T04:08:58.387Z,12.40
2017-10-13T04:11:25.891Z,12.40
2017-10-13T04:13:53.400Z,12.40
2017-10-13T04:16:21.668Z,12.40
2017-10-13T04:18:49.974Z,12.40
2017-10-13T04:21:17.481Z,12.30
2017-10-13T04:23:45.016Z,12.30
2017-10-13T04:26:12.531Z,12.30
2017-10-13T04:28:40.026Z,12.30
2017-10-13T04:31:07.541Z,12.30
2017-10-13T04:33:35.828Z,12.30
2017-10-13T04:36:03.360Z,12.30
2017-10-13T04:38:31.659Z,12.30
2017-10-13T04:40:59.152Z,12.30
2017-10-13T04:43:26.653Z,12.30
2017-10-13T04:45:55.773Z,12.30
2017-10-13T04:48:23.268Z,12.30
2017-10-13T04:50:50.791Z,12.30
2017-10-13T04:53:18.296Z,12.30
2017-10-13T04:55:45.818Z,12.30
2017-10-13T04:58:13.316Z,12.30
2017-10-13T05:00:41.588Z,12.30
2017-10-13T05:03:10.625Z,12.30
2017-10-13T05:05:38.171Z,12.30
2017-10-13T05:08:06.448Z,12.20
2017-10-13T05:10:34.710Z,12.30
2017-10-13T05:13:02.996Z,12.20
2017-10-13T05:15:31.312Z,12.20
2017-10-13T05:17:58.826Z,12.20
2017-10-13T05:20:26.319Z,12.20
2017-10-13T05:22:53.836Z,12.20
2017-10-13T05:25:22.111Z,12.20
2017-10-13T05:27:50.388Z,12.20
2017-10-13T05:30:18.645Z,12.20
2017-10-13T05:32:46.196Z,12.20
2017-10-13T05:35:13.703Z,12.20
2017-10-13T05:37:41.270Z,12.20
2017-10-13T05:40:08.820Z,12.30
2017-10-13T05:42:36.316Z,12.30
2017-10-13T05:45:03.844Z,12.20
2017-10-13T05:47:31.384Z,12.30
2017-10-13T05:49:58.956Z,12.20
2017-10-13T05:52:26.464Z,12.20
2017-10-13T05:54:53.984Z,12.20
2017-10-13T05:57:21.571Z,12.30
2017-10-13T05:59:49.857Z,12.30
2017-10-13T06:02:17.389Z,12.30
2017-10-13T06:04:44.906Z,12.30
2017-10-13T06:07:12.422Z,12.30
2017-10-13T06:09:39.950Z,12.30
2017-10-13T06:12:07.457Z,12.40
2017-10-13T06:14:35.014Z,12.40
2017-10-13T06:17:03.307Z,12.50
2017-10-13T06:19:31.569Z,12.60
2017-10-13T06:21:59.872Z,12.60
2017-10-13T06:24:27.364Z,12.60
2017-10-13T06:26:54.856Z,12.60
2017-10-13T06:29:22.372Z,12.70
2017-10-13T06:31:49.870Z,12.70
2017-10-13T06:34:18.202Z,12.70
2017-10-13T06:36:45.691Z,12.70
2017-10-13T06:39:13.990Z,12.60
2017-10-13T06:41:42.257Z,12.70
2017-10-13T06:44:10.516Z,12.70
2017-10-13T06:46:38.041Z,12.70
2017-10-13T06:49:05.560Z,12.80
2017-10-13T06:51:33.846Z,12.90
2017-10-13T06:54:01.337Z,12.90
2017-10-13T06:56:28.872Z,12.90
2017-10-13T06:58:56.377Z,13.00
2017-10-13T07:01:23.904Z,13.00
2017-10-13T07:03:51.399Z,13.00
2017-10-13T07:06:19.685Z,13.00
2017-10-13T07:08:47.949Z,13.00
2017-10-13T07:11:16.988Z,13.00
2017-10-13T07:13:44.482Z,13.00
2017-10-13T07:16:12.020Z,13.10
2017-10-13T07:18:39.541Z,13.20
2017-10-13T07:21:07.055Z,13.20
2017-10-13T07:23:34.572Z,13.30
2017-10-13T07:26:02.078Z,13.30
2017-10-13T07:28:29.601Z,13.30
2017-10-13T07:30:57.106Z,13.40
2017-10-13T07:33:25.384Z,13.50
2017-10-13T07:35:53.649Z,13.50
2017-10-13T07:38:21.937Z,13.60
2017-10-13T07:40:50.208Z,13.60
2017-10-13T07:43:18.490Z,13.70
2017-10-13T07:45:46.790Z,13.80
2017-10-13T07:48:14.285Z,13.80
2017-10-13T07:50:41.814Z,13.90
2017-10-13T07:53:09.303Z,14.00
2017-10-13T07:55:36.840Z,14.10
2017-10-13T07:58:04.347Z,14.10
2017-10-13T08:00:31.841Z,14.20
2017-10-13T08:02:59.365Z,14.20
2017-10-13T08:05:27.628Z,14.40
2017-10-13T08:07:55.151Z,14.40
2017-10-13T08:10:22.640Z,14.40
2017-10-13T08:12:50.135Z,14.50
2017-10-13T08:15:17.648Z,14.60
2017-10-13T08:17:45.183Z,14.60
2017-10-13T08:20:12.686Z,14.70
2017-10-13T08:22:40.998Z,14.90
2017-10-13T08:25:08.520Z,14.80
2017-10-13T08:27:36.848Z,15.10
2017-10-13T08:30:04.349Z,15.10
2017-10-13T08:32:32.631Z,15.20
2017-10-13T08:35:00.127Z,15.20
2017-10-13T08:37:27.653Z,15.30
2017-10-13T08:39:55.166Z,15.40
2017-10-13T08:42:22.715Z,15.50
2017-10-13T08:44:50.221Z,15.60
2017-10-13T08:47:18.496Z,15.80
2017-10-13T08:49:46.788Z,16.00
2017-10-13T08:52:14.303Z,15.90
2017-10-13T08:54:41.817Z,16.10
2017-10-13T08:57:09.318Z,16.30
2017-10-13T08:59:36.848Z,16.50
2017-10-13T09:02:04.341Z,16.70
2017-10-13T09:04:31.865Z,16.80
2017-10-13T09:06:59.376Z,16.80
2017-10-13T09:09:27.648Z,17.00
2017-10-13T09:11:55.933Z,17.20
2017-10-13T09:14:23.436Z,17.20
2017-10-13T09:16:50.947Z,17.30
2017-10-13T09:19:18.444Z,17.40
2017-10-13T09:21:51.609Z,17.50
2017-10-13T09:24:19.133Z,17.60
2017-10-13T09:26:47.396Z,17.70
2017-10-13T09:29:16.420Z,17.90
2017-10-13T09:31:44.685Z,18.00
2017-10-13T09:34:12.957Z,18.00
2017-10-13T09:36:41.236Z,18.00
2017-10-13T09:39:09.495Z,18.10
2017-10-13T09:41:37.336Z,18.00
2017-10-13T09:44:04.832Z,18.20
2017-10-13T09:46:33.143Z,18.40
2017-10-13T09:49:00.650Z,18.30
2017-10-13T09:51:28.923Z,18.50
2017-10-13T09:53:56.434Z,18.50
2017-10-13T09:56:23.921Z,18.70
2017-10-13T09:58:51.442Z,18.70
2017-10-13T10:01:18.951Z,18.80
2017-10-13T10:03:46.490Z,19.00
2017-10-13T10:06:13.977Z,19.10
2017-10-13T10:08:42.276Z,19.20
2017-10-13T10:11:09.789Z,19.20
2017-10-13T10:13:37.307Z,19.40
2017-10-13T10:16:04.824Z,19.60
2017-10-13T10:18:33.108Z,19.90
2017-10-13T10:21:01.379Z,19.90
2017-10-13T10:23:29.652Z,20.10
2017-10-13T10:25:57.922Z,20.20
2017-10-13T10:28:25.436Z,20.20
2017-10-13T10:30:52.949Z,20.40
2017-10-13T10:33:21.256Z,20.90
2017-10-13T10:35:48.747Z,20.90
2017-10-13T10:38:16.256Z,21.20
2017-10-13T10:40:43.816Z,21.20
2017-10-13T10:43:11.320Z,21.30
2017-10-13T10:45:38.841Z,21.40
2017-10-13T10:48:06.343Z,21.60
2017-10-13T10:50:34.614Z,22.00
2017-10-13T10:53:02.140Z,22.00
2017-10-13T10:55:29.633Z,22.20
2017-10-13T10:57:57.133Z,22.30
2017-10-13T11:00:24.661Z,22.50
2017-10-13T11:02:52.156Z,22.70
2017-10-13T11:05:19.688Z,22.80
2017-10-13T11:07:47.945Z,22.90
2017-10-13T11:10:15.472Z,22.80
2017-10-13T11:12:43.017Z,22.80
2017-10-13T11:15:10.514Z,22.60
2017-10-13T11:17:38.031Z,22.50
2017-10-13T11:20:05.523Z,22.60
2017-10-13T11:22:33.046Z,22.70
2017-10-13T11:25:00.543Z,22.70
2017-10-13T11:27:28.037Z,22.80
2017-10-13T11:29:55.547Z,23.00
2017-10-13T11:32:23.039Z,23.30
2017-10-13T11:34:51.350Z,24.10
2017-10-13T11:37:18.854Z,24.00
2017-10-13T11:39:46.347Z,24.40
2017-10-13T11:42:13.868Z,24.80
2017-10-13T11:44:41.361Z,25.20
2017-10-13T11:47:08.853Z,25.40
2017-10-13T11:49:36.367Z,25.50
2017-10-13T11:52:03.877Z,25.60
2017-10-13T11:54:31.386Z,25.40
2017-10-13T11:56:58.884Z,25.10
2017-10-13T11:59:26.415Z,24.90
2017-10-13T12:01:53.924Z,25.00
2017-10-13T12:04:21.441Z,24.90
2017-10-13T12:06:48.958Z,24.80
2017-10-13T12:09:17.263Z,24.50
2017-10-13T12:11:44.770Z,24.50
2017-10-13T12:14:12.274Z,24.50
2017-10-13T12:16:39.810Z,24.40
2017-10-13T12:19:07.321Z,24.20
2017-10-13T12:21:34.841Z,24.20
2017-10-13T12:24:02.344Z,24.30
2017-10-13T12:26:29.864Z,24.60
2017-10-13T12:28:57.352Z,24.80
2017-10-13T12:31:24.879Z,25.00
2017-10-13T12:33:52.384Z,25.20
2017-10-13T12:36:19.881Z,25.40
2017-10-13T12:38:47.407Z,25.20
2017-10-13T12:41:14.910Z,25.10
2017-10-13T12:43:42.467Z,25.10
2017-10-13T12:46:09.987Z,25.20
2017-10-13T12:48:37.492Z,25.30
2017-10-13T12:51:04.988Z,25.40
2017-10-13T12:53:32.521Z,25.50
2017-10-13T12:56:00.036Z,25.60
2017-10-13T12:58:27.534Z,25.80
2017-10-13T13:00:55.114Z,26.00
2017-10-13T13:03:22.601Z,26.30
2017-10-13T13:05:50.906Z,27.00
2017-10-13T13:08:18.402Z,26.90
2017-10-13T13:10:45.937Z,27.30
2017-10-13T13:13:13.447Z,27.60
2017-10-13T13:15:41.713Z,28.20
2017-10-13T13:18:10.000Z,28.60
2017-10-13T13:20:38.260Z,29.00
2017-10-13T13:23:05.793Z,28.90
2017-10-13T13:25:33.293Z,29.20
2017-10-13T13:28:00.826Z,29.40
2017-10-13T13:30:29.101Z,30.00
2017-10-13T13:32:56.625Z,29.90
2017-10-13T13:35:24.128Z,30.30
2017-10-13T13:37:52.385Z,30.50
2017-10-13T13:40:20.669Z,30.40
2017-10-13T13:42:48.160Z,30.40
2017-10-13T13:45:15.658Z,30.20
2017-10-13T13:47:43.182Z,30.00
2017-10-13T13:50:10.698Z,29.80
2017-10-13T13:52:38.232Z,29.70
2017-10-13T13:55:05.737Z,29.10
2017-10-13T13:57:33.245Z,28.70
2017-10-13T14:00:00.753Z,28.20
2017-10-13T14:02:29.057Z,27.30
2017-10-13T14:04:56.560Z,27.20
2017-10-13T14:07:24.061Z,27.00
2017-10-13T14:09:51.589Z,26.80
2017-10-13T14:12:19.865Z,26.50
2017-10-13T14:14:48.164Z,26.20
2017-10-13T14:17:15.681Z,26.20
2017-10-13T14:19:43.278Z,26.00
2017-10-13T14:22:10.786Z,25.80
2017-10-13T14:24:38.280Z,25.50
2017-10-13T14:27:05.815Z,25.30
2017-10-13T14:29:34.090Z,25.00
2017-10-13T14:32:01.699Z,24.90
2017-10-13T14:34:29.216Z,24.80
2017-10-13T14:36:57.509Z,24.50
2017-10-13T14:39:25.032Z,24.50
2017-10-13T14:41:54.073Z,24.20
2017-10-13T14:44:21.578Z,24.20
2017-10-13T14:46:49.105Z,24.20
2017-10-13T14:49:16.599Z,24.10
2017-10-13T14:51:44.860Z,23.90
2017-10-13T14:54:12.401Z,23.80
2017-10-13T14:56:39.907Z,23.80
2017-10-13T14:59:08.196Z,23.60
2017-10-13T15:01:35.720Z,23.50
2017-10-13T15:04:03.254Z,23.50
2017-10-13T15:06:30.781Z,23.40
2017-10-13T15:08:58.330Z,23.20
2017-10-13T15:11:25.865Z,23.10
2017-10-13T15:13:54.140Z,23.00
2017-10-13T15:16:22.436Z,22.90
2017-10-13T15:18:49.948Z,22.90
2017-10-13T15:21:17.465Z,22.80
2017-10-13T15:23:44.980Z,22.70
2017-10-13T15:26:18.194Z,22.70
2017-10-13T15:31:52.852Z,22.40
2017-10-13T15:34:25.969Z,22.40
2017-10-13T15:36:53.483Z,22.30
2017-10-13T15:39:27.407Z,22.20
2017-10-13T15:42:00.697Z,22.20
2017-10-13T15:44:28.208Z,22.10
2017-10-13T15:47:01.408Z,22.10
2017-10-13T15:49:34.680Z,22.00
2017-10-13T15:52:07.911Z,21.90
2017-10-13T15:54:36.210Z,21.80
2017-10-13T15:57:03.720Z,21.80
2017-10-13T15:59:31.258Z,21.70
2017-10-13T16:01:58.778Z,21.60
2017-10-13T16:04:26.268Z,21.60
2017-10-13T16:06:53.796Z,21.60
2017-10-13T16:09:21.294Z,21.40
2017-10-13T16:11:48.813Z,21.40
2017-10-13T16:14:16.317Z,21.40
2017-10-13T16:16:43.857Z,21.30
2017-10-13T16:19:11.360Z,21.20
2017-10-13T16:21:39.629Z,21.10
2017-10-13T16:24:07.164Z,21.00
2017-10-13T16:26:34.676Z,20.90
2017-10-13T16:29:02.223Z,20.90
2017-10-13T16:31:29.721Z,20.80
2017-10-13T16:33:57.246Z,20.60
2017-10-13T16:36:24.793Z,20.50
2017-10-13T16:38:53.083Z,20.20
2017-10-13T16:41:20.607Z,20.20
2017-10-13T16:43:48.138Z,20.10
2017-10-13T16:46:15.652Z,19.90
2017-10-13T16:48:43.145Z,19.80
2017-10-13T16:51:10.629Z,19.70
2017-10-13T16:53:38.149Z,19.70
2017-10-13T16:56:05.676Z,19.60
2017-10-13T16:58:33.178Z,19.50
2017-10-13T17:01:00.694Z,19.40
2017-10-13T17:03:28.222Z,19.30
2017-10-13T17:05:56.542Z,19.10
2017-10-13T17:08:24.070Z,19.10
2017-10-13T17:10:52.338Z,18.90
2017-10-13T17:13:20.764Z,18.80
2017-10-13T17:15:48.275Z,18.80
2017-10-13T17:18:16.629Z,18.60
2017-10-13T17:20:44.131Z,18.60
2017-10-13T17:23:11.657Z,18.60
2017-10-13T17:25:39.161Z,18.50
2017-10-13T17:28:06.711Z,18.50
2017-10-13T17:30:34.226Z,18.40
2017-10-13T17:33:01.754Z,18.40
2017-10-13T17:35:29.285Z,18.40
2017-10-13T17:37:56.782Z,18.40
2017-10-13T17:40:24.347Z,18.30
2017-10-13T17:42:51.921Z,18.20
2017-10-13T17:45:19.448Z,18.10
2017-10-13T17:47:46.949Z,18.00
2017-10-13T17:50:15.255Z,17.90
2017-10-13T17:52:42.761Z,17.90
2017-10-13T17:55:10.293Z,17.90
2017-10-13T17:57:37.792Z,17.90
2017-10-13T18:00:06.083Z,17.90
2017-10-13T18:02:33.652Z,17.80
2017-10-13T18:05:01.443Z,17.80
2017-10-13T18:07:28.974Z,17.80
2017-10-13T18:09:56.494Z,17.70
2017-10-13T18:12:24.053Z,17.60
2017-10-13T18:14:52.336Z,17.40
2017-10-13T18:17:20.630Z,17.40
2017-10-13T18:19:48.939Z,17.30
2017-10-13T18:22:16.490Z,17.30
2017-10-13T18:24:44.009Z,17.20
2017-10-13T18:27:12.322Z,17.10
2017-10-13T18:29:39.901Z,17.10
2017-10-13T18:32:07.424Z,17.00
2017-10-13T18:34:34.956Z,17.00
2017-10-13T18:37:03.235Z,16.90
2017-10-13T18:39:31.537Z,16.80
2017-10-13T18:41:59.098Z,16.80
2017-10-13T18:44:26.661Z,16.80
2017-10-13T18:46:54.177Z,16.80
2017-10-13T18:49:22.498Z,16.70
2017-10-13T18:51:50.016Z,16.70
2017-10-13T18:54:18.301Z,16.60
2017-10-13T18:56:46.604Z,16.60
2017-10-13T18:59:14.112Z,16.60
2017-10-13T19:01:41.667Z,16.50
2017-10-13T19:04:09.940Z,16.40
2017-10-13T19:06:37.491Z,16.40
2017-10-13T19:09:05.002Z,16.40
2017-10-13T19:11:32.581Z,16.30
2017-10-13T19:14:00.088Z,16.30
2017-10-13T19:16:28.372Z,16.20
2017-10-13T19:18:56.676Z,16.20
2017-10-13T19:21:24.187Z,16.20
2017-10-13T19:23:52.525Z,16.10
2017-10-13T19:26:20.050Z,16.10
2017-10-13T19:28:48.417Z,16.10
2017-10-13T19:31:16.750Z,16.00
2017-10-13T19:33:44.262Z,16.00
2017-10-13T19:36:12.624Z,16.00
2017-10-13T19:38:40.525Z,16.00
2017-10-13T19:41:09.313Z,15.90
2017-10-13T19:43:37.495Z,15.90
2017-10-13T19:46:05.462Z,15.90
2017-10-13T19:48:33.423Z,15.80
2017-10-13T19:51:01.391Z,15.80
2017-10-13T19:53:29.361Z,15.70
2017-10-13T19:55:57.329Z,15.70
2017-10-13T19:58:25.296Z,15.70
2017-10-13T20:00:53.265Z,15.60
2017-10-13T20:03:21.231Z,15.60
2017-10-13T20:05:49.209Z,15.60
2017-10-13T20:08:17.063Z,15.50
2017-10-13T20:10:45.854Z,15.50
2017-10-13T20:13:14.956Z,15.50
2017-10-13T20:15:43.236Z,15.50
2017-10-13T20:18:12.008Z,15.40
2017-10-13T20:20:41.542Z,15.30
2017-10-13T20:23:10.307Z,15.30
2017-10-13T20:25:38.291Z,15.30
2017-10-13T20:28:07.162Z,15.20
2017-10-13T20:30:35.739Z,15.20
2017-10-13T20:33:03.391Z,15.20
2017-10-13T20:35:31.062Z,15.20
2017-10-13T20:37:58.641Z,15.20
2017-10-13T20:40:26.175Z,15.10
2017-10-13T20:42:53.703Z,15.10
2017-10-13T20:45:22.001Z,15.00
2017-10-13T20:47:49.526Z,15.00
2017-10-13T20:50:17.077Z,15.00
2017-10-13T20:52:46.082Z,15.00
2017-10-13T20:55:14.369Z,14.90
2017-10-13T20:57:42.638Z,14.90
2017-10-13T21:00:10.901Z,14.90
2017-10-13T21:02:38.429Z,14.90
2017-10-13T21:05:05.969Z,14.90
2017-10-13T21:07:33.487Z,14.90
2017-10-13T21:10:01.764Z,14.80
2017-10-13T21:12:30.177Z,14.80
2017-10-13T21:14:57.710Z,14.80
2017-10-13T21:17:25.237Z,14.80
2017-10-13T21:19:52.777Z,14.80
2017-10-13T21:22:20.291Z,14.80
2017-10-13T21:24:47.819Z,14.80
2017-10-13T21:27:15.344Z,14.70
2017-10-13T21:29:42.844Z,14.70
2017-10-13T21:32:11.149Z,14.60
2017-10-13T21:34:38.677Z,14.60
2017-10-13T21:37:06.946Z,14.50
2017-10-13T21:39:35.244Z,14.50
2017-10-13T21:42:02.735Z,14.40
2017-10-13T21:44:30.252Z,14.50
2017-10-13T21:46:58.554Z,14.40
2017-10-13T21:49:26.101Z,14.40
2017-10-13T21:51:53.636Z,14.40
2017-10-13T21:54:21.904Z,14.30
2017-10-13T21:56:50.201Z,14.30
2017-10-13T21:59:17.694Z,14.20
2017-10-13T22:01:45.209Z,14.20
2017-10-13T22:04:13.519Z,14.20
2017-10-13T22:06:41.038Z,14.20
2017-10-13T22:09:09.317Z,14.20
2017-10-13T22:11:37.608Z,14.10
2017-10-13T22:14:05.126Z,14.20
2017-10-13T22:16:32.664Z,14.10
2017-10-13T22:19:00.216Z,14.10
2017-10-13T22:21:27.730Z,14.10
2017-10-13T22:23:55.250Z,14.10
2017-10-13T22:26:22.778Z,14.00
2017-10-13T22:28:50.308Z,14.00
2017-10-13T22:31:17.811Z,14.00
2017-10-13T22:33:45.318Z,13.90
2017-10-13T22:36:12.829Z,13.90
2017-10-13T22:38:40.336Z,13.90
2017-10-13T22:41:07.845Z,13.90
2017-10-13T22:43:35.344Z,13.90
2017-10-13T22:46:02.871Z,13.90
2017-10-13T22:48:30.368Z,13.90
2017-10-13T22:50:57.861Z,13.90
2017-10-13T22:53:25.407Z,13.90
2017-10-13T22:55:52.901Z,13.90
2017-10-13T22:58:20.422Z,13.90
2017-10-13T23:00:47.932Z,13.90
2017-10-13T23:03:16.193Z,13.80
2017-10-13T23:05:43.719Z,13.80
2017-10-13T23:08:11.230Z,13.80
2017-10-13T23:10:39.538Z,13.90
2017-10-13T23:13:07.088Z,13.80
2017-10-13T23:15:34.604Z,13.80
2017-10-13T23:18:02.197Z,13.80
2017-10-13T23:20:29.734Z,13.80
2017-10-13T23:22:58.013Z,13.80
2017-10-13T23:25:26.275Z,13.80
2017-10-13T23:27:53.778Z,13.80
2017-10-13T23:30:21.308Z,13.80
2017-10-13T23:32:49.595Z,13.70
2017-10-13T23:35:17.124Z,13.70
2017-10-13T23:37:45.384Z,13.60
2017-10-13T23:40:12.901Z,13.60
2017-10-13T23:42:40.424Z,13.60
2017-10-13T23:45:08.692Z,13.60
2017-10-13T23:47:36.973Z,13.60
2017-10-13T23:50:05.244Z,13.60
2017-10-13T23:52:33.543Z,13.60
2017-10-13T23:55:01.043Z,13.60
2017-10-13T23:57:28.536Z,13.60
2017-10-13T23:59:56.817Z,13.50
